Lamont, Kansas
Current Conditions -  °F | °C
As of 1:53 PM on Tuesday 21 Oct 2014 (Local Time) from KEMP Reporting Station
Clear Clear  
Wind Chill: 74°   Ceiling: Unl
Heat Index: 74°   Visibility: 10mi
Dew Point: 50°   Wind: 9mph
Humidity: 43%   Direction: 170°S
Pressure: 30.08"   Gusts: NA
Location:  38.11°N, 96.03°W
Report Text: KEMP 211853Z AUTO 17008KT 10SM CLR 23/10 A3008 RMK AO2 SLP182 T02330100
Loading
Personal Weather Stations






























Interactive Weather Map
Tropical Storm Tracking
New forecast layout! Learn more

10-Day Weather Forecast

Advertisements
Track Severe Weather on mobile